Time;durP1;ratioP1;P1;durP2;ratioP2;P2;SDS_P1;SDS_P2;PMS_P1;PMS_P2;Temp;Humidity;BMP_temperature;BMP_pressure;BME280_temperature;BME280_humidity;BME280_pressure;Samples;Min_cycle;Max_cycle;Signal;HPM_P1;HPM_P2
2023/08/09 00:02:57;;;;;;;6.20;2.60;;;;;;;13.63;100.00;98702.77;137412;1274;22180;-81
2023/08/09 00:05:59;;;;;;;6.90;3.30;;;;;;;13.48;100.00;98697.90;137395;1274;22172;-81
2023/08/09 00:09:02;;;;;;;5.00;2.90;;;;;;;13.31;100.00;98694.27;137385;1275;22196;-82
2023/08/09 00:12:04;;;;;;;9.60;3.10;;;;;;;13.62;100.00;98696.79;137356;1275;22209;-83
2023/08/09 00:15:07;;;;;;;12.40;3.20;;;;;;;15.64;100.00;98691.67;137322;1275;22177;-78
2023/08/09 00:18:12;;;;;;;3.60;3.00;;;;;;;17.09;100.00;98692.60;137330;1274;22140;-83
2023/08/09 00:21:14;;;;;;;3.00;2.80;;;;;;;17.72;100.00;98690.64;137248;1270;22148;-83
2023/08/09 00:24:16;;;;;;;6.10;2.80;;;;;;;18.07;100.00;98692.06;137321;1274;22170;-83
2023/08/09 00:27:19;;;;;;;6.60;3.00;;;;;;;18.29;100.00;98691.62;137391;1275;22565;-83
2023/08/09 00:30:22;;;;;;;3.80;3.20;;;;;;;18.42;100.00;98696.27;137281;1274;22194;-82
2023/08/09 00:33:25;;;;;;;6.80;2.80;;;;;;;18.50;100.00;98693.98;137096;1268;22564;-84
2023/08/09 00:36:30;;;;;;;6.90;2.30;;;;;;;18.29;100.00;98696.20;137332;1274;23115;-81
2023/08/09 00:39:32;;;;;;;4.70;2.80;;;;;;;17.05;100.00;98701.45;137338;1274;22547;-82
2023/08/09 00:42:35;;;;;;;5.60;2.50;;;;;;;15.93;100.00;98704.72;137315;1275;23023;-82
2023/08/09 00:45:38;;;;;;;3.70;2.60;;;;;;;15.09;100.00;98704.48;137272;1275;22555;-83
2023/08/09 00:48:41;;;;;;;3.30;2.40;;;;;;;14.44;100.00;98707.36;137400;1267;22260;-83
2023/08/09 00:51:43;;;;;;;5.80;2.40;;;;;;;13.97;100.00;98708.97;137323;1274;22261;-82
2023/08/09 00:54:46;;;;;;;2.60;2.30;;;;;;;13.60;100.00;98710.98;137359;1274;22565;-83
2023/08/09 00:57:49;;;;;;;3.10;2.80;;;;;;;13.29;100.00;98714.89;137396;1275;22253;-83
2023/08/09 01:00:51;;;;;;;2.40;2.20;;;;;;;13.00;100.00;98710.84;137238;1274;22181;-82
2023/08/09 01:03:54;;;;;;;3.50;2.50;;;;;;;12.75;100.00;98704.88;137452;1275;22163;-82
2023/08/09 01:06:56;;;;;;;3.10;2.60;;;;;;;12.57;100.00;98709.21;137367;1274;22898;-81
2023/08/09 01:09:59;;;;;;;5.70;2.80;;;;;;;12.40;100.00;98709.70;137203;1274;22718;-80
2023/08/09 01:13:01;;;;;;;3.60;2.60;;;;;;;12.27;100.00;98708.27;137277;1274;22541;-81
2023/08/09 01:16:05;;;;;;;8.80;3.20;;;;;;;12.10;100.00;98702.09;137369;1274;22188;-82
2023/08/09 01:19:08;;;;;;;4.80;3.00;;;;;;;12.02;100.00;98709.38;137372;1275;22161;-82
2023/08/09 01:22:13;;;;;;;3.60;3.10;;;;;;;11.97;100.00;98708.84;137196;1274;22633;-82
2023/08/09 01:25:15;;;;;;;4.30;3.50;;;;;;;11.86;100.00;98703.39;137308;1275;22234;-82
2023/08/09 01:28:18;;;;;;;3.60;3.30;;;;;;;11.79;100.00;98704.73;137333;1274;22237;-82
2023/08/09 01:31:20;;;;;;;3.70;3.40;;;;;;;11.79;100.00;98702.83;137261;1275;22254;-82
2023/08/09 01:34:23;;;;;;;9.40;3.50;;;;;;;11.78;100.00;98711.70;137342;1274;22405;-82
2023/08/09 01:37:25;;;;;;;8.30;3.50;;;;;;;11.77;100.00;98711.16;137395;1274;22306;-82
2023/08/09 01:40:28;;;;;;;5.10;3.30;;;;;;;11.72;100.00;98712.70;137268;1274;22261;-81
2023/08/09 01:43:31;;;;;;;5.40;3.00;;;;;;;11.70;100.00;98720.01;137213;1275;22336;-82
2023/08/09 01:46:33;;;;;;;4.00;2.80;;;;;;;11.69;100.00;98715.64;137297;1275;23118;-82
2023/08/09 01:49:37;;;;;;;4.80;3.30;;;;;;;11.67;100.00;98716.69;137305;1274;22303;-82
2023/08/09 01:52:39;;;;;;;7.20;3.80;;;;;;;11.67;100.00;98720.70;137335;1274;22240;-82
2023/08/09 01:55:42;;;;;;;5.50;3.20;;;;;;;11.73;100.00;98719.67;137331;1274;22284;-79
2023/08/09 01:58:44;;;;;;;3.80;3.20;;;;;;;11.74;100.00;98718.46;137410;1275;22216;-79
2023/08/09 02:01:47;;;;;;;6.20;3.50;;;;;;;11.70;100.00;98718.09;137299;1275;22411;-82
2023/08/09 02:04:49;;;;;;;3.20;2.90;;;;;;;11.68;100.00;98717.21;137222;1274;22652;-81
2023/08/09 02:07:52;;;;;;;3.10;2.90;;;;;;;11.66;100.00;98717.90;137355;1274;22241;-81
2023/08/09 02:10:57;;;;;;;16.70;4.90;;;;;;;11.63;100.00;98715.61;137272;1267;22752;-79
2023/08/09 02:13:59;;;;;;;10.80;4.10;;;;;;;11.58;100.00;98711.23;137378;1275;22133;-83
2023/08/09 02:17:02;;;;;;;3.80;2.90;;;;;;;11.54;100.00;98706.67;137376;1275;22565;-81
2023/08/09 02:20:06;;;;;;;12.80;3.20;;;;;;;11.51;100.00;98715.20;137267;1274;23089;-82
2023/08/09 02:23:13;;;;;;;6.00;3.50;;;;;;;11.51;100.00;98723.73;137338;1275;22555;-82
2023/08/09 02:26:16;;;;;;;6.40;3.50;;;;;;;11.54;100.00;98723.05;137297;1275;22161;-82
2023/08/09 02:29:22;;;;;;;5.60;3.10;;;;;;;11.60;100.00;98720.64;137408;1275;22327;-84
2023/08/09 02:32:24;;;;;;;17.80;4.30;;;;;;;12.37;100.00;98722.55;137233;1275;22555;-82
2023/08/09 02:35:27;;;;;;;6.50;3.70;;;;;;;13.79;100.00;98725.28;137320;1275;22276;-82
2023/08/09 02:38:29;;;;;;;9.90;3.60;;;;;;;13.66;100.00;98728.64;137390;1275;22296;-83
2023/08/09 02:41:32;;;;;;;8.20;3.80;;;;;;;13.36;100.00;98729.73;137236;1275;22210;-81
2023/08/09 02:44:35;;;;;;;5.40;3.70;;;;;;;13.23;100.00;98733.07;137307;1275;22291;-81
2023/08/09 02:47:37;;;;;;;6.50;3.80;;;;;;;13.15;100.00;98728.33;137331;1275;22244;-82
2023/08/09 02:50:41;;;;;;;4.60;3.90;;;;;;;13.11;100.00;98729.37;137357;1275;22260;-82
2023/08/09 02:53:43;;;;;;;9.30;4.10;;;;;;;13.08;100.00;98726.05;137303;1275;22365;-82
2023/08/09 02:56:46;;;;;;;7.80;3.70;;;;;;;13.07;100.00;98723.79;137261;1275;22457;-81
2023/08/09 02:59:48;;;;;;;7.40;3.50;;;;;;;13.05;100.00;98725.70;137237;1274;23025;-85
2023/08/09 03:02:50;;;;;;;5.60;3.80;;;;;;;12.98;100.00;98727.06;137306;1275;22771;-82
2023/08/09 03:05:53;;;;;;;4.90;3.50;;;;;;;12.96;100.00;98726.54;137395;1275;22247;-81
2023/08/09 03:08:55;;;;;;;15.00;4.20;;;;;;;12.91;100.00;98724.09;137358;1275;22681;-82
2023/08/09 03:11:58;;;;;;;12.80;3.90;;;;;;;12.90;100.00;98726.54;137345;1275;22262;-81
2023/08/09 03:15:00;;;;;;;5.50;4.00;;;;;;;12.88;100.00;98726.02;137424;1275;22228;-82
2023/08/09 03:18:03;;;;;;;7.20;3.80;;;;;;;12.86;100.00;98721.65;137358;1275;22219;-82
2023/08/09 03:21:08;;;;;;;7.70;3.40;;;;;;;12.83;100.00;98721.99;137358;1275;22282;-82
2023/08/09 03:24:10;;;;;;;19.50;3.90;;;;;;;12.74;100.00;98723.04;137416;1275;22319;-80
2023/08/09 03:27:13;;;;;;;5.60;3.50;;;;;;;12.64;100.00;98729.83;137380;1275;22737;-81
2023/08/09 03:30:15;;;;;;;6.50;3.20;;;;;;;12.63;100.00;98726.15;137357;1275;22303;-80
2023/08/09 03:33:18;;;;;;;3.90;3.30;;;;;;;12.61;100.00;98724.41;137249;1267;22909;-80
2023/08/09 03:36:20;;;;;;;3.60;2.90;;;;;;;12.53;100.00;98725.61;137193;1275;22413;-82
2023/08/09 03:39:23;;;;;;;13.70;2.40;;;;;;;12.47;100.00;98732.41;137334;1275;22666;-81
2023/08/09 03:42:26;;;;;;;7.90;2.60;;;;;;;12.38;100.00;98733.26;137331;1275;22308;-79
2023/08/09 03:45:28;;;;;;;3.10;2.80;;;;;;;12.28;100.00;98732.01;137362;1275;22257;-79
2023/08/09 03:48:31;;;;;;;5.50;3.20;;;;;;;12.19;100.00;98725.86;137315;1275;22281;-79
2023/08/09 03:51:34;;;;;;;4.60;3.10;;;;;;;12.09;100.00;98719.52;137256;1275;22232;-80
2023/08/09 03:54:36;;;;;;;4.70;2.90;;;;;;;12.01;100.00;98716.35;137268;1275;22139;-78
2023/08/09 03:57:39;;;;;;;4.50;2.90;;;;;;;11.93;100.00;98720.33;137301;1275;22210;-79
2023/08/09 04:00:42;;;;;;;6.20;3.30;;;;;;;11.89;100.00;98721.70;137237;1275;22355;-78
2023/08/09 04:03:44;;;;;;;237.30;17.30;;;;;;;11.88;100.00;98720.48;137217;1275;22410;-79
2023/08/09 04:06:47;;;;;;;40.70;5.40;;;;;;;11.85;100.00;98726.58;137236;1275;22616;-79
2023/08/09 04:09:49;;;;;;;8.50;3.40;;;;;;;11.87;100.00;98730.59;137301;1275;23055;-78
2023/08/09 04:12:52;;;;;;;6.00;3.00;;;;;;;11.92;100.00;98731.66;137231;1274;22795;-78
2023/08/09 04:15:55;;;;;;;5.90;3.40;;;;;;;11.94;100.00;98733.59;137148;1274;22544;-79
2023/08/09 04:18:58;;;;;;;5.00;2.90;;;;;;;12.01;100.00;98740.24;137298;1274;22705;-80
2023/08/09 04:22:00;;;;;;;40.30;6.00;;;;;;;12.07;100.00;98741.84;137360;1274;22262;-79
2023/08/09 04:25:04;;;;;;;9.20;7.00;;;;;;;12.20;100.00;98745.93;137224;1274;22577;-79
2023/08/09 04:28:08;;;;;;;12.20;8.60;;;;;;;12.45;100.00;98749.86;137094;1274;22191;-79
2023/08/09 04:31:10;;;;;;;10.80;7.30;;;;;;;12.64;100.00;98750.77;137287;1274;22399;-78
2023/08/09 04:34:13;;;;;;;8.90;6.50;;;;;;;12.76;100.00;98750.09;137465;1274;22094;-78
2023/08/09 04:37:15;;;;;;;15.40;6.40;;;;;;;12.89;100.00;98744.70;137524;1274;22161;-79
2023/08/09 04:40:18;;;;;;;11.70;6.10;;;;;;;13.09;100.00;98745.63;137525;1275;22233;-78
2023/08/09 04:43:21;;;;;;;7.50;5.30;;;;;;;13.34;100.00;98748.61;137540;1274;22282;-79
2023/08/09 04:46:23;;;;;;;9.80;6.20;;;;;;;13.60;100.00;98742.29;137539;1274;22364;-79
2023/08/09 04:49:28;;;;;;;34.00;7.90;;;;;;;13.81;100.00;98745.57;137322;1274;22552;-79
2023/08/09 04:52:30;;;;;;;;;;;;;;;14.01;100.00;98749.55;137312;1275;22536;-80
2023/08/09 04:55:33;;;;;;;22.60;8.10;;;;;;;14.12;100.00;98754.06;137411;1274;22264;-80
2023/08/09 04:58:36;;;;;;;13.30;7.90;;;;;;;14.22;100.00;98752.63;137177;1275;22230;-80
2023/08/09 05:01:38;;;;;;;18.30;8.80;;;;;;;14.31;100.00;98748.55;137172;1275;22428;-81
2023/08/09 05:04:41;;;;;;;13.80;8.10;;;;;;;14.39;100.00;98745.19;137277;1274;22235;-79
2023/08/09 05:07:43;;;;;;;29.30;9.30;;;;;;;14.49;100.00;98748.14;137281;1274;22350;-77
2023/08/09 05:10:46;;;;;;;16.90;8.70;;;;;;;14.62;100.00;98754.55;137277;1275;22315;-80
2023/08/09 05:13:48;;;;;;;12.70;7.00;;;;;;;14.77;100.00;98756.77;137228;1275;22227;-79
2023/08/09 05:16:51;;;;;;;13.10;7.60;;;;;;;14.95;100.00;98754.02;137226;1275;22348;-78
2023/08/09 05:19:53;;;;;;;12.80;6.80;;;;;;;15.18;100.00;98758.21;137243;1275;22370;-80
2023/08/09 05:22:56;;;;;;;14.90;6.40;;;;;;;15.45;100.00;98757.30;137273;1274;22367;-80
2023/08/09 05:25:58;;;;;;;13.00;5.70;;;;;;;15.65;100.00;98757.67;137271;1274;22252;-80
2023/08/09 05:29:02;;;;;;;10.70;5.40;;;;;;;15.69;100.00;98764.48;137257;1274;22321;-81
2023/08/09 05:32:05;;;;;;;14.70;5.20;;;;;;;15.73;100.00;98769.89;137272;1275;22188;-79
2023/08/09 05:35:08;;;;;;;12.40;4.30;;;;;;;15.86;100.00;98774.49;137265;1275;22195;-80
2023/08/09 05:38:10;;;;;;;5.90;3.60;;;;;;;16.06;100.00;98773.39;137297;1274;22225;-81
2023/08/09 05:41:13;;;;;;;194.00;32.90;;;;;;;16.16;100.00;98770.29;137268;1275;22575;-81
2023/08/09 05:44:15;;;;;;;19.20;6.10;;;;;;;16.27;100.00;98768.40;137255;1275;22238;-80
2023/08/09 05:47:18;;;;;;;16.60;4.70;;;;;;;16.38;100.00;98765.98;137242;1274;22773;-80
2023/08/09 05:50:41;;;;;;;8.80;4.60;;;;;;;16.51;100.00;98764.08;137167;1274;22348;-79
2023/08/09 05:53:46;;;;;;;6.90;4.00;;;;;;;16.65;100.00;98760.23;137222;1275;22244;-79
2023/08/09 05:56:48;;;;;;;7.70;3.90;;;;;;;16.77;100.00;98760.44;137220;1275;22818;-79
2023/08/09 05:59:51;;;;;;;8.70;4.70;;;;;;;16.89;100.00;98761.48;137291;1275;22330;-79
2023/08/09 06:02:53;;;;;;;14.60;7.10;;;;;;;17.01;100.00;98760.59;137263;1264;22567;-81
2023/08/09 06:05:57;;;;;;;11.30;6.70;;;;;;;17.19;100.00;98762.59;137256;1275;22229;-80
2023/08/09 06:09:00;;;;;;;12.40;5.80;;;;;;;17.38;100.00;98769.35;137310;1275;22658;-80
2023/08/09 06:12:04;;;;;;;15.20;5.40;;;;;;;17.59;100.00;98766.18;137329;1275;22191;-80
2023/08/09 06:15:07;;;;;;;93.50;9.30;;;;;;;17.73;100.00;98770.36;137272;1275;22264;-80
2023/08/09 06:18:09;;;;;;;9.40;4.60;;;;;;;17.96;100.00;98773.64;137290;1259;22252;-80
2023/08/09 06:21:12;;;;;;;8.40;5.00;;;;;;;18.26;100.00;98770.61;137270;1274;22323;-81
2023/08/09 06:24:15;;;;;;;24.00;5.10;;;;;;;18.60;100.00;98767.26;137205;1275;22200;-80
2023/08/09 06:27:19;;;;;;;16.20;4.80;;;;;;;18.91;100.00;98765.70;137258;1275;22609;-82
2023/08/09 06:30:21;;;;;;;35.60;6.50;;;;;;;19.12;100.00;98769.11;137253;1275;22550;-81
2023/08/09 06:33:24;;;;;;;39.70;6.20;;;;;;;19.22;100.00;98771.71;137228;1275;22832;-81
2023/08/09 06:36:28;;;;;;;4.20;3.30;;;;;;;19.26;100.00;98773.53;137284;1275;22703;-80
2023/08/09 06:39:30;;;;;;;17.60;4.60;;;;;;;19.33;100.00;98779.55;137253;1275;22820;-81
2023/08/09 06:42:33;;;;;;;10.80;4.20;;;;;;;19.41;100.00;98778.46;137271;1275;22325;-82
2023/08/09 06:45:38;;;;;;;8.60;4.30;;;;;;;19.45;100.00;98776.77;137255;1275;22747;-81
2023/08/09 06:48:40;;;;;;;5.30;3.60;;;;;;;19.49;100.00;98775.81;137304;1275;23257;-79
2023/08/09 06:51:43;;;;;;;3.70;3.30;;;;;;;19.34;100.00;98774.23;137235;1275;22212;-81
2023/08/09 06:54:45;;;;;;;3.70;3.10;;;;;;;19.18;100.00;98775.15;137291;1264;22614;-83
2023/08/09 06:57:48;;;;;;;15.40;4.90;;;;;;;19.13;100.00;98770.33;136974;1275;22408;-79
2023/08/09 07:00:50;;;;;;;3.70;3.10;;;;;;;19.30;100.00;98772.57;137214;1275;22266;-81
2023/08/09 07:03:53;;;;;;;6.00;4.20;;;;;;;19.64;100.00;98774.73;137200;1275;22202;-80
2023/08/09 07:06:55;;;;;;;5.80;4.00;;;;;;;19.92;100.00;98775.77;137120;1275;194914;-82
2023/08/09 07:09:58;;;;;;;7.60;4.50;;;;;;;20.16;100.00;98777.61;137281;1275;22214;-82
2023/08/09 07:13:00;;;;;;;8.90;4.10;;;;;;;20.22;100.00;98780.97;137310;1268;22223;-81
2023/08/09 07:16:03;;;;;;;7.80;3.40;;;;;;;20.18;100.00;98777.89;137236;1275;22409;-81
2023/08/09 07:19:05;;;;;;;9.00;3.90;;;;;;;20.16;100.00;98775.49;137269;1275;22275;-80
2023/08/09 07:22:08;;;;;;;6.80;3.10;;;;;;;20.08;100.00;98771.30;137253;1275;22327;-81
2023/08/09 07:25:10;;;;;;;7.60;3.60;;;;;;;19.94;100.00;98770.42;137250;1275;22244;-81
2023/08/09 07:28:13;;;;;;;7.50;3.60;;;;;;;19.92;100.00;98766.92;137249;1271;22220;-80
2023/08/09 07:31:15;;;;;;;6.90;3.40;;;;;;;19.99;100.00;98763.23;137229;1276;22656;-83
2023/08/09 07:34:18;;;;;;;6.50;3.40;;;;;;;20.11;100.00;98769.11;137196;1275;22245;-82
2023/08/09 07:37:20;;;;;;;4.30;2.60;;;;;;;20.17;100.00;98770.69;137219;1275;22647;-83
2023/08/09 07:40:23;;;;;;;6.90;2.90;;;;;;;20.39;100.00;98769.90;137242;1275;22445;-82
2023/08/09 07:43:26;;;;;;;2.90;2.50;;;;;;;20.54;100.00;98772.67;137215;1275;22249;-83
2023/08/09 07:46:29;;;;;;;7.60;5.60;;;;;;;20.68;100.00;98770.48;137166;1275;22258;-83
2023/08/09 07:49:31;;;;;;;10.70;3.10;;;;;;;21.06;100.00;98774.45;137223;1263;22294;-84
2023/08/09 07:52:34;;;;;;;13.60;3.40;;;;;;;21.41;100.00;98771.57;137258;1264;22278;-82
2023/08/09 07:55:44;;;;;;;40.70;5.50;;;;;;;21.91;61.94;98774.86;137273;1275;22859;-81
2023/08/09 07:58:46;;;;;;;1305.30;122.00;;;;;;;22.34;60.33;98769.96;137239;1274;22828;-83
2023/08/09 08:01:50;;;;;;;33.30;5.80;;;;;;;22.51;58.50;98767.19;137232;1274;22225;-84
2023/08/09 08:04:52;;;;;;;16.60;5.10;;;;;;;22.33;57.50;98772.48;137244;1274;22212;-83
2023/08/09 08:07:55;;;;;;;36.90;5.00;;;;;;;22.19;58.72;98768.92;137344;1274;22734;-81
2023/08/09 08:10:58;;;;;;;6.70;3.10;;;;;;;22.34;57.41;98767.69;137326;1274;22047;-85
2023/08/09 08:14:00;;;;;;;29.60;5.10;;;;;;;22.41;57.43;98760.13;137273;1274;22203;-84
2023/08/09 08:17:03;;;;;;;16.00;3.80;;;;;;;22.45;57.68;98759.47;137300;1274;22206;-84
2023/08/09 08:20:06;;;;;;;18.50;7.60;;;;;;;22.38;58.31;98761.33;137242;1274;23053;-84
2023/08/09 08:23:09;;;;;;;201.70;144.90;;;;;;;22.37;58.30;98756.04;137011;1274;22229;-85
2023/08/09 08:26:11;;;;;;;259.80;186.40;;;;;;;22.53;58.48;98757.56;137247;1274;22255;-83
2023/08/09 08:29:14;;;;;;;5.90;3.00;;;;;;;22.81;57.44;98752.63;137268;1274;22265;-84
2023/08/09 08:32:16;;;;;;;10.50;7.80;;;;;;;23.04;56.40;98755.98;137264;1274;22238;-82
2023/08/09 08:35:21;;;;;;;9.30;3.10;;;;;;;23.13;55.76;98758.46;137238;1274;22635;-83
2023/08/09 08:38:23;;;;;;;4.60;2.60;;;;;;;23.39;55.60;98758.09;137303;1274;22232;-84
2023/08/09 08:41:27;;;;;;;6.60;3.50;;;;;;;23.73;55.15;98755.48;137239;1274;22277;-83
2023/08/09 08:44:29;;;;;;;14.50;3.70;;;;;;;23.89;54.29;98751.77;137227;1274;22223;-84
2023/08/09 08:47:32;;;;;;;6.50;3.60;;;;;;;24.10;54.43;98748.02;137280;1274;22191;-83
2023/08/09 08:50:35;;;;;;;10.20;3.40;;;;;;;24.01;51.86;98746.96;137203;1274;22903;-83
2023/08/09 08:53:37;;;;;;;6.00;2.90;;;;;;;23.71;51.61;98747.05;137286;1274;22818;-84
2023/08/09 08:56:40;;;;;;;3.80;2.40;;;;;;;23.79;52.06;98745.09;137253;1274;22493;-84
2023/08/09 08:59:42;;;;;;;10.70;2.90;;;;;;;24.01;51.47;98736.29;137207;1275;22292;-84
2023/08/09 09:02:45;;;;;;;7.50;3.10;;;;;;;24.13;51.34;98735.24;137296;1275;22379;-84
2023/08/09 09:05:48;;;;;;;3.40;2.40;;;;;;;24.01;51.09;98739.00;137240;1275;22228;-85
2023/08/09 09:08:50;;;;;;;8.10;3.90;;;;;;;23.86;51.15;98740.70;137310;1271;22227;-81
2023/08/09 09:11:53;;;;;;;16.00;4.40;;;;;;;23.89;51.47;98743.59;137199;1275;22236;-82
2023/08/09 09:14:56;;;;;;;30.30;6.00;;;;;;;24.19;50.43;98740.33;137214;1275;22312;-82
2023/08/09 09:17:59;;;;;;;14.00;3.10;;;;;;;24.21;49.59;98739.32;137249;1275;22262;-83
2023/08/09 09:21:01;;;;;;;13.70;3.20;;;;;;;24.13;49.79;98740.73;137277;1275;22571;-82
2023/08/09 09:24:05;;;;;;;10.40;3.70;;;;;;;24.20;49.92;98738.51;137244;1275;22566;-85
2023/08/09 09:27:08;;;;;;;18.00;4.40;;;;;;;24.36;49.45;98737.66;137286;1275;22236;-81
2023/08/09 09:30:13;;;;;;;70.30;8.80;;;;;;;24.54;49.14;98734.52;137313;1275;22282;-86
2023/08/09 09:33:16;;;;;;;18.00;3.50;;;;;;;24.89;47.13;98729.45;137216;1274;22786;-81
2023/08/09 09:36:18;;;;;;;22.20;3.70;;;;;;;24.86;44.72;98724.98;137208;1275;22635;-80
2023/08/09 09:39:21;;;;;;;25.10;15.70;;;;;;;24.85;45.46;98723.08;137312;1275;22226;-83
2023/08/09 09:42:26;;;;;;;3.80;2.50;;;;;;;25.06;45.23;98714.77;137291;1275;22258;-82
2023/08/09 09:45:29;;;;;;;5.10;3.30;;;;;;;25.06;44.40;98713.16;137262;1275;22214;-83
2023/08/09 09:48:32;;;;;;;5.60;3.00;;;;;;;24.71;43.93;98714.82;137333;1271;22218;-82
2023/08/09 09:51:37;;;;;;;7.80;4.60;;;;;;;24.27;45.15;98717.20;137313;1275;22255;-82
2023/08/09 09:54:41;;;;;;;7.30;2.80;;;;;;;23.87;46.27;98717.19;137347;1275;22223;-82
2023/08/09 09:57:43;;;;;;;9.80;4.00;;;;;;;23.42;47.25;98720.52;137311;1275;22175;-81
2023/08/09 10:00:47;;;;;;;4.90;2.70;;;;;;;23.05;48.20;98716.55;137286;1275;22217;-83
2023/08/09 10:03:50;;;;;;;4.70;2.80;;;;;;;22.63;48.71;98711.61;137285;1275;22731;-82
2023/08/09 10:06:53;;;;;;;6.60;2.80;;;;;;;22.38;50.16;98712.75;137257;1275;22248;-81
2023/08/09 10:09:55;;;;;;;17.20;2.80;;;;;;;22.37;50.36;98712.41;137193;1275;22330;-81
2023/08/09 10:12:58;;;;;;;7.70;3.00;;;;;;;22.46;50.83;98708.53;137212;1275;22258;-81
2023/08/09 10:16:10;;;;;;;4.30;2.30;;;;;;;22.54;51.47;98704.34;137250;1275;22076;-83
2023/08/09 10:19:12;;;;;;;11.30;5.80;;;;;;;22.46;50.79;98709.08;137240;1275;22188;-82
2023/08/09 10:22:15;;;;;;;7.10;2.60;;;;;;;22.21;50.56;98712.68;137215;1275;22230;-81
2023/08/09 10:25:19;;;;;;;5.90;2.90;;;;;;;21.97;50.86;98712.48;137205;1271;22222;-80
2023/08/09 10:28:21;;;;;;;9.80;2.90;;;;;;;21.86;50.95;98711.99;137257;1275;22246;-81
2023/08/09 10:31:23;;;;;;;4.80;2.30;;;;;;;22.08;50.33;98709.59;137242;1275;23272;-82
2023/08/09 10:34:26;;;;;;;5.80;2.70;;;;;;;22.45;49.24;98709.97;137239;1275;22216;-81
2023/08/09 10:37:29;;;;;;;6.50;2.50;;;;;;;22.68;48.29;98709.29;137227;1275;22435;-81
2023/08/09 10:40:31;;;;;;;3.40;2.10;;;;;;;22.99;48.02;98714.66;137183;1275;22169;-81
2023/08/09 10:43:34;;;;;;;11.10;2.70;;;;;;;23.14;47.35;98715.83;137224;1275;22163;-79
2023/08/09 10:46:36;;;;;;;22.80;3.80;;;;;;;23.07;47.57;98716.80;137181;1275;22321;-80
2023/08/09 10:49:39;;;;;;;9.90;2.80;;;;;;;22.93;48.20;98715.09;137167;1275;22895;-80
2023/08/09 10:52:41;;;;;;;187.50;12.80;;;;;;;22.97;48.87;98715.98;137227;1275;22864;-78
2023/08/09 10:55:44;;;;;;;7.20;2.80;;;;;;;22.92;48.63;98718.48;137183;1275;22321;-80
2023/08/09 10:58:46;;;;;;;4.80;2.40;;;;;;;22.72;49.24;98719.25;137211;1275;22986;-80
2023/08/09 11:01:49;;;;;;;6.60;3.00;;;;;;;22.58;49.66;98721.38;137231;1275;22651;-81
2023/08/09 11:04:51;;;;;;;3.70;2.30;;;;;;;22.31;50.93;98732.84;137237;1275;22630;-80
2023/08/09 11:07:55;;;;;;;5.20;2.70;;;;;;;21.98;52.53;98746.27;137171;1275;22271;-81
2023/08/09 11:10:57;;;;;;;4.30;2.80;;;;;;;21.63;54.87;98754.90;137209;1275;22187;-81
2023/08/09 11:14:00;;;;;;;5.30;2.50;;;;;;;21.26;57.18;98757.55;137264;1275;22219;-81
2023/08/09 11:17:02;;;;;;;9.90;2.70;;;;;;;21.00;59.47;98760.84;137228;1275;22356;-81
2023/08/09 11:20:07;;;;;;;5.70;2.20;;;;;;;20.83;61.14;98765.10;137072;1275;22503;-84
2023/08/09 11:23:09;;;;;;;6.30;3.10;;;;;;;20.65;63.28;98766.33;137268;1275;23052;-81
2023/08/09 11:26:12;;;;;;;10.80;2.90;;;;;;;20.76;63.54;98766.19;137114;1275;22531;-80
2023/08/09 11:29:14;;;;;;;3.00;2.60;;;;;;;20.93;63.97;98760.89;137228;1275;22289;-81
2023/08/09 11:32:19;;;;;;;3.40;2.50;;;;;;;21.33;63.96;98756.24;137194;1274;22579;-80
2023/08/09 11:35:22;;;;;;;3.50;2.40;;;;;;;21.43;63.11;98759.48;137196;1275;22656;-81
2023/08/09 11:38:24;;;;;;;45.80;37.10;;;;;;;21.20;63.36;98761.27;137201;1275;22232;-80
2023/08/09 11:41:27;;;;;;;6.00;3.80;;;;;;;21.11;63.51;98757.31;137169;1274;22240;-80
2023/08/09 11:44:30;;;;;;;13.20;3.10;;;;;;;20.91;63.00;98759.36;137168;1274;22204;-80
2023/08/09 11:47:32;;;;;;;40.40;27.90;;;;;;;20.70;61.80;98764.75;137179;1275;22239;-80
2023/08/09 11:50:35;;;;;;;4.70;2.40;;;;;;;20.70;62.45;98760.88;137178;1275;22245;-80
2023/08/09 11:53:37;;;;;;;11.10;4.30;;;;;;;21.01;61.21;98761.71;137170;1274;22164;-80
2023/08/09 11:56:41;;;;;;;8.60;2.70;;;;;;;21.24;60.12;98753.17;137212;1274;22239;-79
2023/08/09 11:59:43;;;;;;;2.80;2.00;;;;;;;21.45;59.96;98748.27;137213;1274;22736;-80
2023/08/09 12:02:45;;;;;;;5.70;2.50;;;;;;;21.61;59.36;98751.42;137208;1274;22225;-80
2023/08/09 12:05:48;;;;;;;4.00;2.20;;;;;;;21.55;59.11;98753.05;137146;1275;22215;-82
2023/08/09 12:08:50;;;;;;;5.40;2.50;;;;;;;21.33;58.27;98760.52;137195;1274;22225;-78
2023/08/09 12:11:53;;;;;;;6.70;2.40;;;;;;;20.94;58.96;98768.29;137166;1268;22283;-80
2023/08/09 12:14:56;;;;;;;6.40;2.20;;;;;;;20.64;59.77;98763.33;137129;1265;22344;-81
2023/08/09 12:18:00;;;;;;;4.10;2.40;;;;;;;20.60;59.83;98766.46;137125;1275;22881;-80
2023/08/09 12:21:05;;;;;;;2.70;2.10;;;;;;;20.10;61.25;98766.63;137083;1274;22201;-81
2023/08/09 12:24:08;;;;;;;4.00;2.30;;;;;;;19.88;63.74;98767.93;137126;1275;22246;-79
2023/08/09 12:27:10;;;;;;;4.30;2.10;;;;;;;20.06;65.16;98765.89;137080;1275;22213;-81
2023/08/09 12:30:14;;;;;;;4.90;2.30;;;;;;;20.06;65.91;98765.88;137104;1275;22209;-82
2023/08/09 12:33:17;;;;;;;6.30;2.50;;;;;;;19.77;66.28;98768.20;137094;1275;22338;-81
2023/08/09 12:36:19;;;;;;;3.00;2.30;;;;;;;19.60;67.65;98771.14;137104;1275;22208;-79
2023/08/09 12:39:22;;;;;;;4.30;2.30;;;;;;;19.49;67.87;98771.39;137148;1274;22167;-79
2023/08/09 12:42:24;;;;;;;8.80;4.20;;;;;;;19.62;69.02;98771.08;137084;1275;22667;-79
2023/08/09 12:45:27;;;;;;;5.60;4.80;;;;;;;19.73;69.83;98765.33;137189;1274;22289;-81
2023/08/09 12:48:30;;;;;;;2.70;2.20;;;;;;;19.85;70.20;98762.17;137181;1275;22257;-82
2023/08/09 12:51:32;;;;;;;2.90;2.40;;;;;;;19.86;70.08;98763.21;137179;1271;22294;-79
2023/08/09 12:54:38;;;;;;;7.10;3.20;;;;;;;19.83;71.14;98765.78;137231;1274;22682;-83
2023/08/09 12:57:40;;;;;;;5.40;3.30;;;;;;;19.91;72.62;98764.84;137169;1274;22419;-83
2023/08/09 13:00:43;;;;;;;4.60;2.50;;;;;;;20.13;73.14;98768.85;137230;1274;22211;-85
2023/08/09 13:03:45;;;;;;;3.80;2.30;;;;;;;20.24;72.62;98764.30;137216;1275;22192;-83
2023/08/09 13:06:48;;;;;;;7.50;3.10;;;;;;;20.31;72.81;98760.20;137260;1274;23118;-86
2023/08/09 13:09:57;;;;;;;6.20;3.40;;;;;;;20.30;73.30;98758.48;137160;1275;22890;-85
2023/08/09 13:13:03;;;;;;;6.90;3.40;;;;;;;20.15;74.00;98756.09;137281;1275;22163;-85
2023/08/09 13:16:12;;;;;;;141.70;81.50;;;;;;;20.28;74.56;98751.10;137268;1275;22199;-84
2023/08/09 13:19:15;;;;;;;50.20;27.30;;;;;;;20.37;74.55;98753.54;137251;1275;22194;-83
2023/08/09 13:22:21;;;;;;;23.90;14.80;;;;;;;20.23;73.90;98747.91;137264;1275;22264;-84
2023/08/09 13:25:23;;;;;;;52.90;36.80;;;;;;;20.21;74.93;98744.45;137259;1275;22214;-84
2023/08/09 13:28:26;;;;;;;6.90;3.40;;;;;;;20.25;75.47;98747.66;137342;1275;22690;-84
2023/08/09 13:31:32;;;;;;;6.40;3.60;;;;;;;20.32;74.73;98745.00;137301;1275;22123;-84
2023/08/09 13:34:36;;;;;;;76.80;46.40;;;;;;;20.17;75.28;98746.65;137287;1275;22229;-84
2023/08/09 13:37:39;;;;;;;9.90;4.00;;;;;;;20.18;74.89;98746.29;137234;1275;22497;-84
2023/08/09 13:40:41;;;;;;;4.70;3.60;;;;;;;20.00;74.77;98744.33;137329;1274;22598;-84
2023/08/09 13:43:44;;;;;;;6.50;4.00;;;;;;;19.87;74.56;98739.19;137336;1275;22469;-83
2023/08/09 13:46:47;;;;;;;6.30;4.40;;;;;;;19.74;75.68;98739.17;137368;1274;22621;-84
2023/08/09 13:49:49;;;;;;;6.40;4.50;;;;;;;19.75;75.99;98737.91;137380;1275;22092;-84
2023/08/09 13:52:52;;;;;;;9.10;3.60;;;;;;;19.80;75.62;98734.77;137321;1275;22585;-85
2023/08/09 13:55:55;;;;;;;6.60;3.90;;;;;;;19.94;75.30;98733.17;137340;1275;22136;-85
2023/08/09 13:58:58;;;;;;;6.70;4.00;;;;;;;20.09;74.75;98728.17;137328;1275;22137;-85
2023/08/09 14:02:01;;;;;;;6.50;3.40;;;;;;;20.16;74.59;98730.80;137365;1275;22149;-84